sensor_id;sensor_type;location;lat;lon;timestamp;P1;durP1;ratioP1;P2;durP2;ratioP2
30934;SDS011;51033;42.648;23.292;2024-02-21T00:00:46;5.00;;;4.40;;
30934;SDS011;51033;42.648;23.292;2024-02-21T00:03:11;4.47;;;4.03;;
30934;SDS011;51033;42.648;23.292;2024-02-21T00:05:37;4.72;;;4.30;;
30934;SDS011;51033;42.648;23.292;2024-02-21T00:08:02;5.68;;;4.68;;
30934;SDS011;51033;42.648;23.292;2024-02-21T00:10:31;5.75;;;4.45;;
30934;SDS011;51033;42.648;23.292;2024-02-21T00:13:00;5.85;;;4.75;;
30934;SDS011;51033;42.648;23.292;2024-02-21T00:15:25;6.53;;;4.72;;
30934;SDS011;51033;42.648;23.292;2024-02-21T00:17:51;6.53;;;4.80;;
30934;SDS011;51033;42.648;23.292;2024-02-21T00:20:16;5.70;;;4.25;;
30934;SDS011;51033;42.648;23.292;2024-02-21T00:22:42;7.88;;;6.05;;
30934;SDS011;51033;42.648;23.292;2024-02-21T00:25:08;5.45;;;4.38;;
30934;SDS011;51033;42.648;23.292;2024-02-21T00:27:33;5.82;;;5.00;;
30934;SDS011;51033;42.648;23.292;2024-02-21T00:29:59;4.85;;;4.30;;
30934;SDS011;51033;42.648;23.292;2024-02-21T00:32:24;5.10;;;4.25;;
30934;SDS011;51033;42.648;23.292;2024-02-21T00:34:50;5.43;;;4.32;;
30934;SDS011;51033;42.648;23.292;2024-02-21T00:37:15;3.60;;;3.30;;
30934;SDS011;51033;42.648;23.292;2024-02-21T00:39:40;6.72;;;4.20;;
30934;SDS011;51033;42.648;23.292;2024-02-21T00:42:07;5.28;;;4.32;;
30934;SDS011;51033;42.648;23.292;2024-02-21T00:44:33;5.88;;;4.10;;
30934;SDS011;51033;42.648;23.292;2024-02-21T00:46:58;5.85;;;4.70;;
30934;SDS011;51033;42.648;23.292;2024-02-21T00:49:23;7.05;;;5.53;;
30934;SDS011;51033;42.648;23.292;2024-02-21T00:51:49;5.80;;;4.47;;
30934;SDS011;51033;42.648;23.292;2024-02-21T00:54:14;7.35;;;4.72;;
30934;SDS011;51033;42.648;23.292;2024-02-21T00:56:39;6.65;;;4.43;;
30934;SDS011;51033;42.648;23.292;2024-02-21T00:59:05;6.13;;;4.70;;
30934;SDS011;51033;42.648;23.292;2024-02-21T01:01:30;6.07;;;5.05;;
30934;SDS011;51033;42.648;23.292;2024-02-21T01:03:55;5.80;;;4.97;;
30934;SDS011;51033;42.648;23.292;2024-02-21T01:06:21;5.82;;;5.10;;
30934;SDS011;51033;42.648;23.292;2024-02-21T01:08:47;5.88;;;4.43;;
30934;SDS011;51033;42.648;23.292;2024-02-21T01:11:13;8.60;;;5.70;;
30934;SDS011;51033;42.648;23.292;2024-02-21T01:13:39;7.45;;;5.50;;
30934;SDS011;51033;42.648;23.292;2024-02-21T01:16:04;8.77;;;6.68;;
30934;SDS011;51033;42.648;23.292;2024-02-21T01:18:31;6.95;;;5.55;;
30934;SDS011;51033;42.648;23.292;2024-02-21T01:20:57;7.40;;;5.82;;
30934;SDS011;51033;42.648;23.292;2024-02-21T01:23:22;6.18;;;4.78;;
30934;SDS011;51033;42.648;23.292;2024-02-21T01:25:47;6.68;;;5.18;;
30934;SDS011;51033;42.648;23.292;2024-02-21T01:28:13;4.55;;;4.15;;
30934;SDS011;51033;42.648;23.292;2024-02-21T01:30:38;6.18;;;4.50;;
30934;SDS011;51033;42.648;23.292;2024-02-21T01:33:03;6.28;;;4.53;;
30934;SDS011;51033;42.648;23.292;2024-02-21T01:35:29;6.07;;;4.85;;
30934;SDS011;51033;42.648;23.292;2024-02-21T01:37:54;7.40;;;6.07;;
30934;SDS011;51033;42.648;23.292;2024-02-21T01:40:19;7.82;;;6.05;;
30934;SDS011;51033;42.648;23.292;2024-02-21T01:42:45;11.55;;;8.10;;
30934;SDS011;51033;42.648;23.292;2024-02-21T01:45:12;8.85;;;7.32;;
30934;SDS011;51033;42.648;23.292;2024-02-21T01:47:38;9.05;;;6.93;;
30934;SDS011;51033;42.648;23.292;2024-02-21T01:50:03;11.00;;;7.88;;
30934;SDS011;51033;42.648;23.292;2024-02-21T01:52:29;13.82;;;8.48;;
30934;SDS011;51033;42.648;23.292;2024-02-21T01:54:56;14.40;;;8.55;;
30934;SDS011;51033;42.648;23.292;2024-02-21T01:57:22;11.52;;;8.63;;
30934;SDS011;51033;42.648;23.292;2024-02-21T01:59:48;12.48;;;9.07;;
30934;SDS011;51033;42.648;23.292;2024-02-21T02:02:14;14.00;;;9.70;;
30934;SDS011;51033;42.648;23.292;2024-02-21T02:04:41;12.68;;;9.13;;
30934;SDS011;51033;42.648;23.292;2024-02-21T02:07:07;13.95;;;9.75;;
30934;SDS011;51033;42.648;23.292;2024-02-21T02:09:33;13.35;;;9.15;;
30934;SDS011;51033;42.648;23.292;2024-02-21T02:11:58;13.05;;;9.85;;
30934;SDS011;51033;42.648;23.292;2024-02-21T02:14:25;14.35;;;9.25;;
30934;SDS011;51033;42.648;23.292;2024-02-21T02:16:50;14.77;;;9.80;;
30934;SDS011;51033;42.648;23.292;2024-02-21T02:19:16;13.70;;;9.70;;
30934;SDS011;51033;42.648;23.292;2024-02-21T02:21:42;14.63;;;10.40;;
30934;SDS011;51033;42.648;23.292;2024-02-21T02:24:13;14.18;;;10.50;;
30934;SDS011;51033;42.648;23.292;2024-02-21T02:26:39;15.05;;;9.77;;
30934;SDS011;51033;42.648;23.292;2024-02-21T02:29:05;15.00;;;10.25;;
30934;SDS011;51033;42.648;23.292;2024-02-21T02:31:30;13.93;;;10.52;;
30934;SDS011;51033;42.648;23.292;2024-02-21T02:33:56;18.65;;;11.82;;
30934;SDS011;51033;42.648;23.292;2024-02-21T02:36:21;15.52;;;11.75;;
30934;SDS011;51033;42.648;23.292;2024-02-21T02:38:46;15.38;;;10.35;;
30934;SDS011;51033;42.648;23.292;2024-02-21T02:41:12;15.65;;;10.98;;
30934;SDS011;51033;42.648;23.292;2024-02-21T02:43:37;14.80;;;11.30;;
30934;SDS011;51033;42.648;23.292;2024-02-21T02:46:02;14.48;;;10.77;;
30934;SDS011;51033;42.648;23.292;2024-02-21T02:48:28;13.57;;;9.57;;
30934;SDS011;51033;42.648;23.292;2024-02-21T02:50:54;14.93;;;10.70;;
30934;SDS011;51033;42.648;23.292;2024-02-21T02:53:20;15.18;;;11.32;;
30934;SDS011;51033;42.648;23.292;2024-02-21T02:55:45;16.25;;;11.02;;
30934;SDS011;51033;42.648;23.292;2024-02-21T02:58:11;15.57;;;10.98;;
30934;SDS011;51033;42.648;23.292;2024-02-21T03:00:36;15.93;;;11.05;;
30934;SDS011;51033;42.648;23.292;2024-02-21T03:03:02;16.75;;;11.00;;
30934;SDS011;51033;42.648;23.292;2024-02-21T03:05:30;13.60;;;10.40;;
30934;SDS011;51033;42.648;23.292;2024-02-21T03:07:56;14.52;;;10.77;;
30934;SDS011;51033;42.648;23.292;2024-02-21T03:10:21;16.25;;;10.32;;
30934;SDS011;51033;42.648;23.292;2024-02-21T03:12:47;18.00;;;12.00;;
30934;SDS011;51033;42.648;23.292;2024-02-21T03:15:12;15.02;;;10.20;;
30934;SDS011;51033;42.648;23.292;2024-02-21T03:17:39;16.30;;;11.20;;
30934;SDS011;51033;42.648;23.292;2024-02-21T03:20:05;16.83;;;10.95;;
30934;SDS011;51033;42.648;23.292;2024-02-21T03:22:35;19.00;;;11.98;;
30934;SDS011;51033;42.648;23.292;2024-02-21T03:25:01;16.98;;;11.73;;
30934;SDS011;51033;42.648;23.292;2024-02-21T03:27:26;19.27;;;11.85;;
30934;SDS011;51033;42.648;23.292;2024-02-21T03:29:51;13.35;;;10.88;;
30934;SDS011;51033;42.648;23.292;2024-02-21T03:32:17;14.48;;;10.95;;
30934;SDS011;51033;42.648;23.292;2024-02-21T03:34:42;16.38;;;11.55;;
30934;SDS011;51033;42.648;23.292;2024-02-21T03:37:07;14.15;;;11.02;;
30934;SDS011;51033;42.648;23.292;2024-02-21T03:39:33;15.18;;;11.18;;
30934;SDS011;51033;42.648;23.292;2024-02-21T03:41:58;14.77;;;11.27;;
30934;SDS011;51033;42.648;23.292;2024-02-21T03:44:29;16.95;;;10.70;;
30934;SDS011;51033;42.648;23.292;2024-02-21T03:46:55;17.77;;;12.20;;
30934;SDS011;51033;42.648;23.292;2024-02-21T03:49:21;15.52;;;10.48;;
30934;SDS011;51033;42.648;23.292;2024-02-21T03:51:47;14.50;;;10.65;;
30934;SDS011;51033;42.648;23.292;2024-02-21T03:54:12;15.40;;;11.65;;
30934;SDS011;51033;42.648;23.292;2024-02-21T03:56:38;15.68;;;10.90;;
30934;SDS011;51033;42.648;23.292;2024-02-21T03:59:05;14.68;;;11.73;;
30934;SDS011;51033;42.648;23.292;2024-02-21T04:01:36;18.67;;;11.50;;
30934;SDS011;51033;42.648;23.292;2024-02-21T04:04:01;18.38;;;11.43;;
30934;SDS011;51033;42.648;23.292;2024-02-21T04:06:27;20.48;;;12.95;;
30934;SDS011;51033;42.648;23.292;2024-02-21T04:08:52;18.13;;;11.73;;
30934;SDS011;51033;42.648;23.292;2024-02-21T04:11:18;17.17;;;11.98;;
30934;SDS011;51033;42.648;23.292;2024-02-21T04:13:44;19.02;;;12.93;;
30934;SDS011;51033;42.648;23.292;2024-02-21T04:16:14;16.73;;;12.07;;
30934;SDS011;51033;42.648;23.292;2024-02-21T04:18:40;18.95;;;11.57;;
30934;SDS011;51033;42.648;23.292;2024-02-21T04:21:06;18.65;;;12.68;;
30934;SDS011;51033;42.648;23.292;2024-02-21T04:23:31;15.90;;;10.88;;
30934;SDS011;51033;42.648;23.292;2024-02-21T04:25:57;18.70;;;10.77;;
30934;SDS011;51033;42.648;23.292;2024-02-21T04:28:22;16.40;;;11.82;;
30934;SDS011;51033;42.648;23.292;2024-02-21T04:30:48;17.05;;;10.23;;
30934;SDS011;51033;42.648;23.292;2024-02-21T04:33:13;15.38;;;11.05;;
30934;SDS011;51033;42.648;23.292;2024-02-21T04:35:38;18.20;;;12.13;;
30934;SDS011;51033;42.648;23.292;2024-02-21T04:38:04;15.75;;;10.75;;
30934;SDS011;51033;42.648;23.292;2024-02-21T04:40:30;14.82;;;11.32;;
30934;SDS011;51033;42.648;23.292;2024-02-21T04:42:55;15.45;;;10.55;;
30934;SDS011;51033;42.648;23.292;2024-02-21T04:45:21;13.77;;;11.18;;
30934;SDS011;51033;42.648;23.292;2024-02-21T04:47:47;15.65;;;11.30;;
30934;SDS011;51033;42.648;23.292;2024-02-21T04:50:12;15.52;;;11.27;;
30934;SDS011;51033;42.648;23.292;2024-02-21T04:52:38;13.77;;;10.40;;
30934;SDS011;51033;42.648;23.292;2024-02-21T04:55:03;13.65;;;10.90;;
30934;SDS011;51033;42.648;23.292;2024-02-21T04:57:29;16.55;;;11.18;;
30934;SDS011;51033;42.648;23.292;2024-02-21T04:59:54;14.90;;;11.45;;
30934;SDS011;51033;42.648;23.292;2024-02-21T05:02:19;15.27;;;10.95;;
30934;SDS011;51033;42.648;23.292;2024-02-21T05:04:47;16.70;;;11.80;;
30934;SDS011;51033;42.648;23.292;2024-02-21T05:07:13;13.88;;;10.82;;
30934;SDS011;51033;42.648;23.292;2024-02-21T05:09:38;17.73;;;12.15;;
30934;SDS011;51033;42.648;23.292;2024-02-21T05:12:03;18.33;;;11.90;;
30934;SDS011;51033;42.648;23.292;2024-02-21T05:14:29;16.50;;;11.50;;
30934;SDS011;51033;42.648;23.292;2024-02-21T05:16:54;13.40;;;10.00;;
30934;SDS011;51033;42.648;23.292;2024-02-21T05:19:20;13.65;;;10.35;;
30934;SDS011;51033;42.648;23.292;2024-02-21T05:21:45;13.15;;;10.38;;
30934;SDS011;51033;42.648;23.292;2024-02-21T05:24:11;17.13;;;10.77;;
30934;SDS011;51033;42.648;23.292;2024-02-21T05:26:36;14.02;;;10.65;;
30934;SDS011;51033;42.648;23.292;2024-02-21T05:29:02;12.52;;;9.43;;
30934;SDS011;51033;42.648;23.292;2024-02-21T05:31:29;15.57;;;11.15;;
30934;SDS011;51033;42.648;23.292;2024-02-21T05:34:19;16.13;;;10.95;;
30934;SDS011;51033;42.648;23.292;2024-02-21T05:36:45;14.73;;;10.98;;
30934;SDS011;51033;42.648;23.292;2024-02-21T05:39:11;17.65;;;10.98;;
30934;SDS011;51033;42.648;23.292;2024-02-21T05:41:37;15.40;;;11.75;;
30934;SDS011;51033;42.648;23.292;2024-02-21T05:44:02;15.35;;;11.60;;
30934;SDS011;51033;42.648;23.292;2024-02-21T05:46:28;17.17;;;13.13;;
30934;SDS011;51033;42.648;23.292;2024-02-21T05:48:53;17.27;;;11.27;;
30934;SDS011;51033;42.648;23.292;2024-02-21T05:51:19;20.00;;;13.65;;
30934;SDS011;51033;42.648;23.292;2024-02-21T05:53:44;15.70;;;11.07;;
30934;SDS011;51033;42.648;23.292;2024-02-21T05:56:10;16.08;;;11.52;;
30934;SDS011;51033;42.648;23.292;2024-02-21T05:58:36;18.58;;;12.45;;
30934;SDS011;51033;42.648;23.292;2024-02-21T06:01:02;16.17;;;11.95;;
30934;SDS011;51033;42.648;23.292;2024-02-21T06:03:28;18.52;;;12.35;;
30934;SDS011;51033;42.648;23.292;2024-02-21T06:05:54;20.70;;;11.93;;
30934;SDS011;51033;42.648;23.292;2024-02-21T06:08:20;15.57;;;10.70;;
30934;SDS011;51033;42.648;23.292;2024-02-21T06:10:45;16.63;;;11.40;;
30934;SDS011;51033;42.648;23.292;2024-02-21T06:13:11;20.35;;;12.43;;
30934;SDS011;51033;42.648;23.292;2024-02-21T06:15:36;18.27;;;12.27;;
30934;SDS011;51033;42.648;23.292;2024-02-21T06:18:02;19.83;;;12.07;;
30934;SDS011;51033;42.648;23.292;2024-02-21T06:20:27;19.48;;;12.90;;
30934;SDS011;51033;42.648;23.292;2024-02-21T06:22:53;19.10;;;12.13;;
30934;SDS011;51033;42.648;23.292;2024-02-21T06:25:18;19.73;;;13.40;;
30934;SDS011;51033;42.648;23.292;2024-02-21T06:27:44;18.65;;;12.80;;
30934;SDS011;51033;42.648;23.292;2024-02-21T06:30:09;18.38;;;13.73;;
30934;SDS011;51033;42.648;23.292;2024-02-21T06:32:35;17.75;;;12.68;;
30934;SDS011;51033;42.648;23.292;2024-02-21T06:35:00;21.27;;;13.45;;
30934;SDS011;51033;42.648;23.292;2024-02-21T06:37:27;17.67;;;11.88;;
30934;SDS011;51033;42.648;23.292;2024-02-21T06:39:52;21.38;;;14.57;;
30934;SDS011;51033;42.648;23.292;2024-02-21T06:42:18;22.17;;;14.60;;
30934;SDS011;51033;42.648;23.292;2024-02-21T06:44:46;17.65;;;13.02;;
30934;SDS011;51033;42.648;23.292;2024-02-21T06:47:11;17.35;;;13.32;;
30934;SDS011;51033;42.648;23.292;2024-02-21T06:49:37;21.30;;;14.38;;
30934;SDS011;51033;42.648;23.292;2024-02-21T06:52:03;19.40;;;12.65;;
30934;SDS011;51033;42.648;23.292;2024-02-21T06:54:29;21.08;;;13.65;;
30934;SDS011;51033;42.648;23.292;2024-02-21T06:56:55;18.88;;;13.57;;
30934;SDS011;51033;42.648;23.292;2024-02-21T06:59:20;19.75;;;13.13;;
30934;SDS011;51033;42.648;23.292;2024-02-21T07:01:48;17.70;;;12.60;;
30934;SDS011;51033;42.648;23.292;2024-02-21T07:04:13;21.70;;;13.73;;
30934;SDS011;51033;42.648;23.292;2024-02-21T07:06:40;19.13;;;12.82;;
30934;SDS011;51033;42.648;23.292;2024-02-21T07:09:05;23.15;;;13.60;;
30934;SDS011;51033;42.648;23.292;2024-02-21T07:11:30;20.00;;;12.88;;
30934;SDS011;51033;42.648;23.292;2024-02-21T07:13:56;21.70;;;14.27;;
30934;SDS011;51033;42.648;23.292;2024-02-21T07:16:21;20.48;;;12.88;;
30934;SDS011;51033;42.648;23.292;2024-02-21T07:18:46;20.58;;;12.85;;
30934;SDS011;51033;42.648;23.292;2024-02-21T07:21:12;19.27;;;13.40;;
30934;SDS011;51033;42.648;23.292;2024-02-21T07:23:40;21.38;;;14.48;;
30934;SDS011;51033;42.648;23.292;2024-02-21T07:26:08;20.33;;;14.00;;
30934;SDS011;51033;42.648;23.292;2024-02-21T07:28:34;20.58;;;13.65;;
30934;SDS011;51033;42.648;23.292;2024-02-21T07:30:59;22.38;;;14.32;;
30934;SDS011;51033;42.648;23.292;2024-02-21T07:33:25;21.85;;;13.13;;
30934;SDS011;51033;42.648;23.292;2024-02-21T07:35:50;23.27;;;14.77;;
30934;SDS011;51033;42.648;23.292;2024-02-21T07:38:16;26.27;;;16.42;;
30934;SDS011;51033;42.648;23.292;2024-02-21T07:40:46;22.15;;;15.32;;
30934;SDS011;51033;42.648;23.292;2024-02-21T07:43:11;19.13;;;13.27;;
30934;SDS011;51033;42.648;23.292;2024-02-21T07:45:36;19.25;;;13.57;;
30934;SDS011;51033;42.648;23.292;2024-02-21T07:48:03;21.88;;;14.57;;
30934;SDS011;51033;42.648;23.292;2024-02-21T07:50:29;20.92;;;14.95;;
30934;SDS011;51033;42.648;23.292;2024-02-21T07:52:54;22.17;;;14.63;;
30934;SDS011;51033;42.648;23.292;2024-02-21T07:55:19;21.85;;;13.75;;
30934;SDS011;51033;42.648;23.292;2024-02-21T07:57:45;18.30;;;12.27;;
30934;SDS011;51033;42.648;23.292;2024-02-21T08:00:10;19.85;;;13.20;;
30934;SDS011;51033;42.648;23.292;2024-02-21T08:02:42;23.13;;;14.13;;
30934;SDS011;51033;42.648;23.292;2024-02-21T08:05:09;18.90;;;14.32;;
30934;SDS011;51033;42.648;23.292;2024-02-21T08:07:34;21.27;;;13.50;;
30934;SDS011;51033;42.648;23.292;2024-02-21T08:09:59;21.75;;;15.23;;
30934;SDS011;51033;42.648;23.292;2024-02-21T08:12:25;22.50;;;15.52;;
30934;SDS011;51033;42.648;23.292;2024-02-21T08:14:50;20.33;;;14.02;;
30934;SDS011;51033;42.648;23.292;2024-02-21T08:17:15;18.50;;;13.40;;
30934;SDS011;51033;42.648;23.292;2024-02-21T08:19:41;20.40;;;13.85;;
30934;SDS011;51033;42.648;23.292;2024-02-21T08:22:06;20.65;;;13.50;;
30934;SDS011;51033;42.648;23.292;2024-02-21T08:24:32;18.52;;;13.30;;
30934;SDS011;51033;42.648;23.292;2024-02-21T08:26:57;20.23;;;13.80;;
30934;SDS011;51033;42.648;23.292;2024-02-21T08:29:22;19.10;;;12.98;;
30934;SDS011;51033;42.648;23.292;2024-02-21T08:31:48;18.77;;;12.25;;
30934;SDS011;51033;42.648;23.292;2024-02-21T08:34:13;18.75;;;13.05;;
30934;SDS011;51033;42.648;23.292;2024-02-21T08:36:39;17.70;;;11.73;;
30934;SDS011;51033;42.648;23.292;2024-02-21T08:39:04;18.33;;;11.20;;
30934;SDS011;51033;42.648;23.292;2024-02-21T08:41:32;15.25;;;10.77;;
30934;SDS011;51033;42.648;23.292;2024-02-21T08:43:59;17.95;;;10.30;;
30934;SDS011;51033;42.648;23.292;2024-02-21T08:46:25;14.70;;;9.93;;
30934;SDS011;51033;42.648;23.292;2024-02-21T08:48:50;13.82;;;10.35;;
30934;SDS011;51033;42.648;23.292;2024-02-21T08:51:16;13.55;;;10.18;;
30934;SDS011;51033;42.648;23.292;2024-02-21T08:53:43;15.82;;;10.43;;
30934;SDS011;51033;42.648;23.292;2024-02-21T08:56:08;13.40;;;9.45;;
30934;SDS011;51033;42.648;23.292;2024-02-21T08:58:34;15.40;;;10.68;;
30934;SDS011;51033;42.648;23.292;2024-02-21T09:01:04;15.57;;;11.25;;
30934;SDS011;51033;42.648;23.292;2024-02-21T09:03:31;14.18;;;10.68;;
30934;SDS011;51033;42.648;23.292;2024-02-21T09:05:57;15.00;;;9.65;;
30934;SDS011;51033;42.648;23.292;2024-02-21T09:08:23;15.00;;;10.50;;
30934;SDS011;51033;42.648;23.292;2024-02-21T09:10:49;14.15;;;10.75;;
30934;SDS011;51033;42.648;23.292;2024-02-21T09:13:15;20.48;;;11.52;;
30934;SDS011;51033;42.648;23.292;2024-02-21T09:15:40;16.15;;;12.32;;
30934;SDS011;51033;42.648;23.292;2024-02-21T09:18:05;16.35;;;11.68;;
30934;SDS011;51033;42.648;23.292;2024-02-21T09:20:31;15.63;;;11.02;;
30934;SDS011;51033;42.648;23.292;2024-02-21T09:22:56;17.45;;;10.98;;
30934;SDS011;51033;42.648;23.292;2024-02-21T09:25:22;16.92;;;10.77;;
30934;SDS011;51033;42.648;23.292;2024-02-21T09:27:47;15.90;;;12.05;;
30934;SDS011;51033;42.648;23.292;2024-02-21T09:30:13;13.95;;;10.15;;
30934;SDS011;51033;42.648;23.292;2024-02-21T09:32:38;17.45;;;11.25;;
30934;SDS011;51033;42.648;23.292;2024-02-21T09:35:04;14.43;;;10.15;;
30934;SDS011;51033;42.648;23.292;2024-02-21T09:37:32;17.25;;;10.10;;
30934;SDS011;51033;42.648;23.292;2024-02-21T09:39:58;14.68;;;10.43;;
30934;SDS011;51033;42.648;23.292;2024-02-21T09:42:25;16.60;;;10.90;;
30934;SDS011;51033;42.648;23.292;2024-02-21T09:45:19;16.20;;;10.50;;
30934;SDS011;51033;42.648;23.292;2024-02-21T09:50:32;18.15;;;12.23;;
30934;SDS011;51033;42.648;23.292;2024-02-21T09:53:01;18.70;;;12.15;;
30934;SDS011;51033;42.648;23.292;2024-02-21T09:55:27;20.60;;;13.10;;
30934;SDS011;51033;42.648;23.292;2024-02-21T09:57:57;21.23;;;13.70;;
30934;SDS011;51033;42.648;23.292;2024-02-21T10:00:24;17.00;;;12.88;;
30934;SDS011;51033;42.648;23.292;2024-02-21T10:02:49;16.15;;;11.30;;
30934;SDS011;51033;42.648;23.292;2024-02-21T10:05:15;16.95;;;10.98;;
30934;SDS011;51033;42.648;23.292;2024-02-21T10:07:41;13.85;;;9.23;;
30934;SDS011;51033;42.648;23.292;2024-02-21T10:10:06;14.82;;;9.45;;
30934;SDS011;51033;42.648;23.292;2024-02-21T10:12:32;13.45;;;9.30;;
30934;SDS011;51033;42.648;23.292;2024-02-21T10:15:01;14.60;;;11.32;;
30934;SDS011;51033;42.648;23.292;2024-02-21T10:17:27;13.15;;;8.55;;
30934;SDS011;51033;42.648;23.292;2024-02-21T10:19:52;15.73;;;10.45;;
30934;SDS011;51033;42.648;23.292;2024-02-21T10:22:18;11.38;;;8.15;;
30934;SDS011;51033;42.648;23.292;2024-02-21T10:24:45;14.52;;;9.30;;
30934;SDS011;51033;42.648;23.292;2024-02-21T10:27:10;17.27;;;12.52;;
30934;SDS011;51033;42.648;23.292;2024-02-21T10:29:36;10.77;;;8.02;;
30934;SDS011;51033;42.648;23.292;2024-02-21T10:32:09;14.80;;;10.35;;
30934;SDS011;51033;42.648;23.292;2024-02-21T10:34:37;12.85;;;9.40;;
30934;SDS011;51033;42.648;23.292;2024-02-21T10:37:04;13.23;;;9.52;;
30934;SDS011;51033;42.648;23.292;2024-02-21T10:39:37;13.45;;;10.15;;
30934;SDS011;51033;42.648;23.292;2024-02-21T10:42:04;13.95;;;10.35;;
30934;SDS011;51033;42.648;23.292;2024-02-21T10:44:31;12.85;;;9.40;;
30934;SDS011;51033;42.648;23.292;2024-02-21T10:46:57;11.77;;;6.97;;
30934;SDS011;51033;42.648;23.292;2024-02-21T10:49:24;10.25;;;7.43;;
30934;SDS011;51033;42.648;23.292;2024-02-21T10:52:00;12.15;;;8.10;;
30934;SDS011;51033;42.648;23.292;2024-02-21T10:55:41;11.45;;;8.35;;
30934;SDS011;51033;42.648;23.292;2024-02-21T11:00:30;12.45;;;8.10;;
30934;SDS011;51033;42.648;23.292;2024-02-21T11:02:57;9.15;;;6.30;;
30934;SDS011;51033;42.648;23.292;2024-02-21T11:05:24;13.80;;;7.18;;
30934;SDS011;51033;42.648;23.292;2024-02-21T11:07:50;8.30;;;6.85;;
30934;SDS011;51033;42.648;23.292;2024-02-21T11:10:20;10.60;;;7.45;;
30934;SDS011;51033;42.648;23.292;2024-02-21T11:12:47;7.22;;;6.15;;
30934;SDS011;51033;42.648;23.292;2024-02-21T11:15:13;7.63;;;5.82;;
30934;SDS011;51033;42.648;23.292;2024-02-21T11:17:38;8.70;;;7.35;;
30934;SDS011;51033;42.648;23.292;2024-02-21T11:20:13;7.72;;;5.25;;
30934;SDS011;51033;42.648;23.292;2024-02-21T11:22:42;6.20;;;4.80;;
30934;SDS011;51033;42.648;23.292;2024-02-21T11:25:08;6.63;;;5.55;;
30934;SDS011;51033;42.648;23.292;2024-02-21T11:27:36;7.45;;;5.40;;
30934;SDS011;51033;42.648;23.292;2024-02-21T11:30:04;9.15;;;6.13;;
30934;SDS011;51033;42.648;23.292;2024-02-21T11:32:30;11.07;;;5.65;;
30934;SDS011;51033;42.648;23.292;2024-02-21T11:35:00;9.35;;;5.65;;
30934;SDS011;51033;42.648;23.292;2024-02-21T11:37:29;13.63;;;5.93;;
30934;SDS011;51033;42.648;23.292;2024-02-21T11:39:55;7.57;;;6.13;;
30934;SDS011;51033;42.648;23.292;2024-02-21T11:42:21;5.07;;;4.60;;
30934;SDS011;51033;42.648;23.292;2024-02-21T11:44:47;6.80;;;5.15;;
30934;SDS011;51033;42.648;23.292;2024-02-21T11:47:13;7.22;;;4.55;;
30934;SDS011;51033;42.648;23.292;2024-02-21T11:49:42;6.28;;;4.72;;
30934;SDS011;51033;42.648;23.292;2024-02-21T11:52:14;7.90;;;6.03;;
30934;SDS011;51033;42.648;23.292;2024-02-21T11:54:44;7.70;;;5.25;;
30934;SDS011;51033;42.648;23.292;2024-02-21T11:57:10;6.38;;;5.28;;
30934;SDS011;51033;42.648;23.292;2024-02-21T11:59:36;5.80;;;5.15;;
30934;SDS011;51033;42.648;23.292;2024-02-21T12:02:01;7.55;;;5.97;;
30934;SDS011;51033;42.648;23.292;2024-02-21T12:04:28;7.35;;;4.45;;
30934;SDS011;51033;42.648;23.292;2024-02-21T12:06:56;6.97;;;4.57;;
30934;SDS011;51033;42.648;23.292;2024-02-21T12:09:23;6.90;;;5.90;;
30934;SDS011;51033;42.648;23.292;2024-02-21T12:11:56;6.10;;;5.13;;
30934;SDS011;51033;42.648;23.292;2024-02-21T12:14:24;7.22;;;5.25;;
30934;SDS011;51033;42.648;23.292;2024-02-21T12:16:50;8.95;;;5.70;;
30934;SDS011;51033;42.648;23.292;2024-02-21T12:19:15;7.68;;;5.25;;
30934;SDS011;51033;42.648;23.292;2024-02-21T12:21:42;6.60;;;5.85;;
30934;SDS011;51033;42.648;23.292;2024-02-21T12:24:11;8.60;;;5.70;;
30934;SDS011;51033;42.648;23.292;2024-02-21T12:26:38;7.82;;;5.72;;
30934;SDS011;51033;42.648;23.292;2024-02-21T12:29:04;8.13;;;6.15;;
30934;SDS011;51033;42.648;23.292;2024-02-21T12:31:29;9.63;;;7.25;;
30934;SDS011;51033;42.648;23.292;2024-02-21T12:33:54;10.45;;;7.57;;
30934;SDS011;51033;42.648;23.292;2024-02-21T12:36:20;12.73;;;7.43;;
30934;SDS011;51033;42.648;23.292;2024-02-21T12:38:45;14.63;;;7.05;;
30934;SDS011;51033;42.648;23.292;2024-02-21T12:41:13;14.80;;;6.95;;
30934;SDS011;51033;42.648;23.292;2024-02-21T12:43:39;12.85;;;7.45;;
30934;SDS011;51033;42.648;23.292;2024-02-21T12:46:04;10.75;;;7.63;;
30934;SDS011;51033;42.648;23.292;2024-02-21T12:48:31;12.27;;;7.40;;
30934;SDS011;51033;42.648;23.292;2024-02-21T12:50:57;9.35;;;7.63;;
30934;SDS011;51033;42.648;23.292;2024-02-21T12:53:23;7.30;;;6.25;;
30934;SDS011;51033;42.648;23.292;2024-02-21T12:55:49;6.80;;;5.75;;
30934;SDS011;51033;42.648;23.292;2024-02-21T12:58:15;9.10;;;6.05;;
30934;SDS011;51033;42.648;23.292;2024-02-21T13:00:41;6.68;;;5.40;;
30934;SDS011;51033;42.648;23.292;2024-02-21T13:03:07;7.38;;;5.78;;
30934;SDS011;51033;42.648;23.292;2024-02-21T13:05:34;5.13;;;4.45;;
30934;SDS011;51033;42.648;23.292;2024-02-21T13:08:00;7.25;;;6.03;;
30934;SDS011;51033;42.648;23.292;2024-02-21T13:10:26;6.75;;;5.50;;
30934;SDS011;51033;42.648;23.292;2024-02-21T13:12:51;5.55;;;4.95;;
30934;SDS011;51033;42.648;23.292;2024-02-21T13:15:17;7.72;;;5.20;;
30934;SDS011;51033;42.648;23.292;2024-02-21T13:17:45;7.43;;;4.60;;
30934;SDS011;51033;42.648;23.292;2024-02-21T13:20:11;5.38;;;4.35;;
30934;SDS011;51033;42.648;23.292;2024-02-21T13:22:36;6.45;;;5.53;;
30934;SDS011;51033;42.648;23.292;2024-02-21T13:25:03;7.85;;;6.22;;
30934;SDS011;51033;42.648;23.292;2024-02-21T13:27:32;12.23;;;7.90;;
30934;SDS011;51033;42.648;23.292;2024-02-21T13:29:58;11.60;;;7.00;;
30934;SDS011;51033;42.648;23.292;2024-02-21T13:32:23;10.20;;;7.90;;
30934;SDS011;51033;42.648;23.292;2024-02-21T13:34:49;11.35;;;7.07;;
30934;SDS011;51033;42.648;23.292;2024-02-21T13:37:15;12.60;;;7.65;;
30934;SDS011;51033;42.648;23.292;2024-02-21T13:39:40;11.27;;;8.57;;
30934;SDS011;51033;42.648;23.292;2024-02-21T13:42:06;10.13;;;7.80;;
30934;SDS011;51033;42.648;23.292;2024-02-21T13:44:31;13.00;;;7.90;;
30934;SDS011;51033;42.648;23.292;2024-02-21T13:46:57;10.82;;;7.28;;
30934;SDS011;51033;42.648;23.292;2024-02-21T13:49:22;9.02;;;7.15;;
30934;SDS011;51033;42.648;23.292;2024-02-21T13:51:48;8.30;;;6.40;;
30934;SDS011;51033;42.648;23.292;2024-02-21T13:54:13;9.23;;;5.63;;
30934;SDS011;51033;42.648;23.292;2024-02-21T13:56:42;11.43;;;8.98;;
30934;SDS011;51033;42.648;23.292;2024-02-21T13:59:08;9.57;;;7.50;;
30934;SDS011;51033;42.648;23.292;2024-02-21T14:01:33;16.55;;;10.85;;
30934;SDS011;51033;42.648;23.292;2024-02-21T14:04:00;23.63;;;13.13;;
30934;SDS011;51033;42.648;23.292;2024-02-21T14:06:26;10.85;;;8.50;;
30934;SDS011;51033;42.648;23.292;2024-02-21T14:08:51;11.57;;;7.45;;
30934;SDS011;51033;42.648;23.292;2024-02-21T14:11:17;9.60;;;7.55;;
30934;SDS011;51033;42.648;23.292;2024-02-21T14:13:42;11.80;;;7.65;;
30934;SDS011;51033;42.648;23.292;2024-02-21T14:16:11;10.10;;;6.80;;
30934;SDS011;51033;42.648;23.292;2024-02-21T14:18:40;10.55;;;6.85;;